createdAt,value
2019-03-25T00:02:09.352Z,96211.70
2019-03-25T00:04:40.753Z,96206.92
2019-03-25T00:07:12.099Z,96202.66
2019-03-25T00:09:44.031Z,96203.55
2019-03-25T00:12:15.407Z,96208.12
2019-03-25T00:14:48.310Z,96202.38
2019-03-25T00:17:19.820Z,96203.33
2019-03-25T00:19:51.340Z,96207.42
2019-03-25T00:22:25.511Z,96207.50
2019-03-25T00:24:56.804Z,96202.12
2019-03-25T00:27:28.171Z,96202.08
2019-03-25T00:30:00.134Z,96203.03
2019-03-25T00:32:31.644Z,96206.19
2019-03-25T00:35:06.219Z,96204.13
2019-03-25T00:37:37.609Z,96200.38
2019-03-25T00:40:09.068Z,96199.05
2019-03-25T00:42:40.467Z,96194.64
2019-03-25T00:45:12.229Z,96193.23
2019-03-25T00:47:43.778Z,96188.33
2019-03-25T00:50:15.173Z,96180.81
2019-03-25T00:52:47.200Z,96180.95
2019-03-25T00:55:18.977Z,96168.81
2019-03-25T00:57:50.315Z,96168.73
2019-03-25T01:00:21.709Z,96169.20
2019-03-25T01:02:53.265Z,96164.12
2019-03-25T01:05:27.687Z,96165.28
2019-03-25T01:08:00.509Z,96161.69
2019-03-25T01:10:32.037Z,96163.73
2019-03-25T01:13:03.913Z,96159.68
2019-03-25T01:15:35.465Z,96158.22
2019-03-25T01:18:16.368Z,96159.11
2019-03-25T01:20:40.014Z,96155.39
2019-03-25T01:23:11.419Z,96162.30
2019-03-25T01:25:43.387Z,96156.38
2019-03-25T01:28:14.705Z,96156.97
2019-03-25T01:30:46.104Z,96158.35
2019-03-25T01:33:17.944Z,96153.09
2019-03-25T01:35:49.336Z,96150.16
2019-03-25T01:38:20.673Z,96148.50
2019-03-25T01:40:52.456Z,96150.06
2019-03-25T01:43:24.479Z,96149.09
2019-03-25T01:45:55.929Z,96147.22
2019-03-25T01:48:27.369Z,96144.63
2019-03-25T01:50:59.098Z,96138.86
2019-03-25T01:53:31.517Z,96129.25
2019-03-25T01:56:02.966Z,96134.25
2019-03-25T01:58:34.356Z,96128.59
2019-03-25T02:01:05.874Z,96117.63
2019-03-25T02:03:39.763Z,96112.19
2019-03-25T02:06:12.697Z,96115.25
2019-03-25T02:08:44.008Z,96116.06
2019-03-25T02:11:15.354Z,96110.68
2019-03-25T02:13:46.773Z,96103.27
2019-03-25T02:16:18.141Z,96091.59
2019-03-25T02:18:49.486Z,96094.38
2019-03-25T02:21:21.284Z,96097.33
2019-03-25T02:23:52.582Z,96092.70
2019-03-25T02:26:23.944Z,96089.50
2019-03-25T02:28:55.250Z,96085.28
2019-03-25T02:31:26.621Z,96085.90
2019-03-25T02:33:58.473Z,96080.72
2019-03-25T02:36:29.788Z,96080.16
2019-03-25T02:39:01.680Z,96065.88
2019-03-25T02:41:34.643Z,96066.49
2019-03-25T02:44:06.029Z,96065.98
2019-03-25T02:46:37.441Z,96063.75
2019-03-25T02:49:08.919Z,96071.60
2019-03-25T02:51:40.270Z,96073.13
2019-03-25T02:54:11.734Z,96071.70
2019-03-25T02:56:43.050Z,96063.69
2019-03-25T02:59:14.511Z,96059.29
2019-03-25T03:01:45.902Z,96056.64
2019-03-25T03:04:17.331Z,96053.56
2019-03-25T03:06:49.327Z,96049.51
2019-03-25T03:09:20.696Z,96043.66
2019-03-25T03:11:51.980Z,96039.60
2019-03-25T03:14:23.548Z,96034.28
2019-03-25T03:16:55.345Z,96024.73
2019-03-25T03:19:26.671Z,96033.02
2019-03-25T03:21:57.973Z,96018.48
2019-03-25T03:24:29.344Z,96006.05
2019-03-25T03:27:00.955Z,96019.25
2019-03-25T03:29:32.329Z,96017.27
2019-03-25T03:32:04.153Z,96017.88
2019-03-25T03:34:35.615Z,96014.61
2019-03-25T03:37:06.907Z,96013.35
2019-03-25T03:39:38.281Z,96019.02
2019-03-25T03:42:10.080Z,96013.12
2019-03-25T03:44:41.466Z,96011.14
2019-03-25T03:47:12.881Z,96009.36
2019-03-25T03:49:47.121Z,96004.09
2019-03-25T03:52:19.015Z,96001.35
2019-03-25T03:54:50.630Z,96001.92
2019-03-25T03:57:22.442Z,95995.13
2019-03-25T03:59:53.929Z,95987.38
2019-03-25T04:02:25.289Z,95988.94
2019-03-25T04:04:57.155Z,95990.26
2019-03-25T04:07:28.604Z,95985.19
2019-03-25T04:10:00.017Z,95984.59
2019-03-25T04:12:31.812Z,95979.81
2019-03-25T04:15:03.222Z,95986.77
2019-03-25T04:17:34.595Z,95978.55
2019-03-25T04:20:06.028Z,95980.80
2019-03-25T04:22:37.735Z,95985.14
2019-03-25T04:25:09.302Z,95977.85
2019-03-25T04:27:40.722Z,95977.04
2019-03-25T04:30:12.202Z,95971.00
2019-03-25T04:32:43.581Z,95975.16
2019-03-25T04:35:14.931Z,95982.98
2019-03-25T04:37:46.657Z,95976.53
2019-03-25T04:40:18.032Z,95984.54
2019-03-25T04:42:49.439Z,95984.23
2019-03-25T04:45:20.818Z,95989.88
2019-03-25T04:47:52.559Z,95976.99
2019-03-25T04:50:24.078Z,95981.46
2019-03-25T04:52:55.491Z,95982.52
2019-03-25T04:55:26.906Z,95978.27
2019-03-25T04:57:58.328Z,95982.48
2019-03-25T05:00:35.485Z,95984.40
2019-03-25T05:03:07.029Z,95986.23
2019-03-25T05:05:38.454Z,95980.95
2019-03-25T05:08:10.429Z,95970.19
2019-03-25T05:10:42.342Z,95969.47
2019-03-25T05:13:13.778Z,95962.67
2019-03-25T05:15:45.152Z,95965.31
2019-03-25T05:18:16.894Z,95966.33
2019-03-25T05:20:50.551Z,95961.87
2019-03-25T05:23:22.049Z,95952.44
2019-03-25T05:25:54.020Z,95949.94
2019-03-25T05:28:25.399Z,95943.25
2019-03-25T05:30:57.218Z,95936.14
2019-03-25T05:33:30.154Z,95934.80
2019-03-25T05:36:06.006Z,95917.59
2019-03-25T05:38:55.461Z,95923.47
2019-03-25T05:41:26.980Z,95910.27
2019-03-25T05:44:00.780Z,95886.22
2019-03-25T05:46:32.774Z,95876.26
2019-03-25T05:49:04.646Z,95866.56
2019-03-25T05:51:37.913Z,95851.69
2019-03-25T05:54:15.093Z,95841.34
2019-03-25T05:56:49.560Z,95844.70
2019-03-25T05:59:21.341Z,95842.58
2019-03-25T06:01:52.818Z,95828.95
2019-03-25T06:04:24.275Z,95819.14
2019-03-25T06:06:56.084Z,95827.81
2019-03-25T06:09:34.992Z,95848.52
2019-03-25T06:12:06.414Z,95849.55
2019-03-25T06:14:40.293Z,95857.13
2019-03-25T06:17:13.181Z,95860.28
2019-03-25T06:19:46.160Z,95865.62
2019-03-25T06:22:17.609Z,95866.72
2019-03-25T06:24:49.313Z,95861.82
2019-03-25T06:27:21.136Z,95859.09
2019-03-25T06:29:52.698Z,95856.08
2019-03-25T06:32:24.299Z,95851.84
2019-03-25T06:34:58.648Z,95847.29
2019-03-25T06:37:32.456Z,95853.08
2019-03-25T06:40:04.140Z,95842.35
2019-03-25T06:42:37.183Z,95843.92
2019-03-25T06:45:09.777Z,95848.31
2019-03-25T06:47:44.332Z,95848.17
2019-03-25T06:50:16.234Z,95847.12
2019-03-25T06:52:48.221Z,95844.05
2019-03-25T06:55:21.537Z,95841.62
2019-03-25T06:57:56.221Z,95844.26
2019-03-25T07:00:28.529Z,95842.59
2019-03-25T07:03:00.980Z,95841.19
2019-03-25T07:05:35.445Z,95837.34
2019-03-25T07:08:09.625Z,95840.53
2019-03-25T07:10:44.403Z,95850.81
2019-03-25T07:13:25.576Z,95845.87
2019-03-25T07:15:56.979Z,95843.18
2019-03-25T07:18:28.543Z,95839.56
2019-03-25T07:21:02.861Z,95843.60
2019-03-25T07:23:34.325Z,95846.84
2019-03-25T07:26:07.444Z,95844.11
2019-03-25T07:28:38.929Z,95850.72
2019-03-25T07:31:11.023Z,95848.45
2019-03-25T07:33:42.669Z,95854.80
2019-03-25T07:36:14.432Z,95855.33
2019-03-25T07:38:50.687Z,95843.70
2019-03-25T07:41:28.183Z,95836.77
2019-03-25T07:44:00.007Z,95841.30
2019-03-25T07:46:31.640Z,95840.56
2019-03-25T07:49:05.120Z,95844.19
2019-03-25T07:51:38.730Z,95849.25
2019-03-25T07:54:10.270Z,95849.50
2019-03-25T07:56:41.881Z,95853.02
2019-03-25T07:59:13.215Z,95850.67
2019-03-25T08:02:15.450Z,95853.22
2019-03-25T08:04:52.192Z,95853.61
2019-03-25T08:07:28.371Z,95855.17
2019-03-25T08:09:59.760Z,95839.90
2019-03-25T08:12:35.430Z,95843.57
2019-03-25T08:15:07.954Z,95852.02
2019-03-25T08:17:39.498Z,95850.32
2019-03-25T08:20:15.331Z,95850.62
2019-03-25T08:22:47.291Z,95848.27
2019-03-25T08:25:18.600Z,95859.31
2019-03-25T08:27:59.448Z,95862.23
2019-03-25T08:30:25.518Z,95861.16
2019-03-25T08:32:59.658Z,95858.22
2019-03-25T08:35:31.667Z,95861.52
2019-03-25T08:38:07.502Z,95859.55
2019-03-25T08:40:39.180Z,95873.33
2019-03-25T08:43:16.192Z,95872.76
2019-03-25T08:45:47.557Z,95873.48
2019-03-25T08:48:20.554Z,95875.67
2019-03-25T08:50:56.977Z,95882.15
2019-03-25T08:53:28.700Z,95882.75
2019-03-25T08:56:00.319Z,95875.55
2019-03-25T08:58:32.454Z,95884.36
2019-03-25T09:01:06.076Z,95889.27
2019-03-25T09:03:37.572Z,95891.83
2019-03-25T09:06:18.906Z,95896.60
2019-03-25T09:08:50.463Z,95898.16
2019-03-25T09:11:22.285Z,95889.70
2019-03-25T09:13:57.769Z,95894.74
2019-03-25T09:16:33.023Z,95891.76
2019-03-25T09:19:04.719Z,95895.64
2019-03-25T09:21:36.483Z,95891.08
2019-03-25T09:24:08.056Z,95894.64
2019-03-25T09:26:39.437Z,95894.13
2019-03-25T09:29:12.452Z,95898.73
2019-03-25T09:31:44.564Z,95894.23
2019-03-25T09:34:16.176Z,95890.92
2019-03-25T09:36:56.203Z,95892.51
2019-03-25T09:39:32.702Z,95892.20
2019-03-25T09:42:06.339Z,95896.17
2019-03-25T09:44:41.845Z,95894.05
2019-03-25T09:47:19.524Z,95902.63
2019-03-25T09:49:51.511Z,95896.81
2019-03-25T09:52:23.145Z,95892.31
2019-03-25T09:54:56.131Z,95886.50
2019-03-25T09:57:32.650Z,95886.88
2019-03-25T10:00:09.762Z,95883.48
2019-03-25T10:02:44.367Z,95888.39
2019-03-25T10:05:17.840Z,95878.44
2019-03-25T10:07:52.048Z,95886.45
2019-03-25T10:10:23.402Z,95890.41
2019-03-25T10:12:56.925Z,95890.12
2019-03-25T10:15:29.306Z,95892.89
2019-03-25T10:18:06.903Z,95903.81
2019-03-25T10:20:41.485Z,95900.50
2019-03-25T10:23:14.875Z,95909.98
2019-03-25T10:25:51.087Z,95904.98
2019-03-25T10:28:22.703Z,95901.75
2019-03-25T10:30:57.594Z,95894.08
2019-03-25T10:33:29.025Z,95888.27
2019-03-25T10:36:02.182Z,95888.53
2019-03-25T10:38:33.581Z,95894.56
2019-03-25T10:41:08.049Z,95891.67
2019-03-25T10:43:39.434Z,95887.98
2019-03-25T10:46:11.235Z,95889.52
2019-03-25T10:48:42.944Z,95889.07
2019-03-25T10:51:17.330Z,95879.27
2019-03-25T10:53:50.745Z,95873.10
2019-03-25T10:56:25.163Z,95873.72
2019-03-25T10:59:22.396Z,95876.38
2019-03-25T11:01:53.967Z,95872.72
2019-03-25T11:04:25.978Z,95875.84
2019-03-25T11:07:00.375Z,95878.27
2019-03-25T11:09:40.478Z,95867.94
2019-03-25T11:12:11.969Z,95870.18
2019-03-25T11:14:43.276Z,95884.19
2019-03-25T11:17:17.180Z,95880.08
2019-03-25T11:19:53.522Z,95878.72
2019-03-25T11:22:25.496Z,95876.02
2019-03-25T11:25:02.763Z,95874.84
2019-03-25T11:27:36.097Z,95869.82
2019-03-25T11:30:08.081Z,95871.05
2019-03-25T11:32:47.326Z,95877.31
2019-03-25T11:35:20.691Z,95869.86
2019-03-25T11:37:54.758Z,95875.55
2019-03-25T11:40:26.934Z,95865.89
2019-03-25T11:42:58.400Z,95876.42
2019-03-25T11:45:30.162Z,95862.67
2019-03-25T11:48:03.549Z,95862.41
2019-03-25T11:50:42.711Z,95858.80
2019-03-25T11:53:16.677Z,95850.41
2019-03-25T11:55:47.995Z,95851.64
2019-03-25T11:58:19.464Z,95838.77
2019-03-25T12:00:51.085Z,95844.12
2019-03-25T12:03:22.952Z,95841.50
2019-03-25T12:06:04.038Z,95842.57
2019-03-25T12:08:35.395Z,95837.63
2019-03-25T12:11:07.101Z,95826.94
2019-03-25T12:13:39.560Z,95827.65
2019-03-25T12:16:11.443Z,95818.73
2019-03-25T12:18:44.203Z,95821.81
2019-03-25T12:21:15.817Z,95836.05
2019-03-25T12:23:47.342Z,95827.64
2019-03-25T12:26:23.817Z,95817.08
2019-03-25T12:29:06.974Z,95816.96
2019-03-25T12:32:05.090Z,95820.56
2019-03-25T12:34:53.266Z,95804.31
2019-03-25T12:37:36.627Z,95804.47
2019-03-25T12:40:35.785Z,95812.89
2019-03-25T12:43:22.385Z,95815.75
2019-03-25T12:46:05.037Z,95815.28
2019-03-25T12:48:39.277Z,95807.09
2019-03-25T12:51:22.835Z,95795.45
2019-03-25T12:54:04.353Z,95796.87
2019-03-25T12:56:54.691Z,95802.27
2019-03-25T12:59:53.571Z,95801.34
2019-03-25T13:02:26.405Z,95797.70
2019-03-25T13:05:05.245Z,95792.45
2019-03-25T13:07:47.394Z,95797.59
2019-03-25T13:10:23.118Z,95785.51
2019-03-25T13:12:58.892Z,95789.19
2019-03-25T13:15:30.413Z,95789.72
2019-03-25T13:18:02.086Z,95791.50
2019-03-25T13:20:39.315Z,95793.70
2019-03-25T13:23:11.772Z,95802.09
2019-03-25T13:25:46.488Z,95817.84
2019-03-25T13:28:18.070Z,95818.77
2019-03-25T13:30:49.888Z,95839.89
2019-03-25T13:33:22.464Z,95857.56
2019-03-25T13:36:00.029Z,95869.61
2019-03-25T13:38:32.786Z,95889.73
2019-03-25T13:41:05.235Z,95893.35
2019-03-25T13:43:43.781Z,95893.95
2019-03-25T13:46:16.403Z,95878.15
2019-03-25T13:48:49.087Z,95879.45
2019-03-25T13:51:43.074Z,95885.08
2019-03-25T13:54:21.137Z,95890.69
2019-03-25T13:56:52.592Z,95902.41
2019-03-25T13:59:27.543Z,95898.31
2019-03-25T14:01:58.847Z,95897.62
2019-03-25T14:04:30.501Z,95905.45
2019-03-25T14:07:07.181Z,95900.89
2019-03-25T14:09:38.207Z,95903.13
2019-03-25T14:12:12.738Z,95900.33
2019-03-25T14:14:46.317Z,95893.17
2019-03-25T14:17:19.719Z,95891.00
2019-03-25T14:19:51.082Z,95901.80
2019-03-25T14:22:22.863Z,95904.78
2019-03-25T14:24:54.500Z,95912.61
2019-03-25T14:27:28.627Z,95911.82
2019-03-25T14:30:00.100Z,95903.41
2019-03-25T14:32:32.250Z,95893.14
2019-03-25T14:35:07.244Z,95891.19
2019-03-25T14:37:41.167Z,95902.05
2019-03-25T14:40:17.249Z,95906.23
2019-03-25T14:42:54.727Z,95899.97
2019-03-25T14:45:26.958Z,95897.11
2019-03-25T14:47:58.531Z,95901.02
2019-03-25T14:50:33.134Z,95894.74
2019-03-25T14:53:07.540Z,95886.63
2019-03-25T14:55:39.026Z,95911.89
2019-03-25T14:58:10.873Z,95906.44
2019-03-25T15:00:49.875Z,95908.78
2019-03-25T15:03:21.765Z,95913.74
2019-03-25T15:05:56.628Z,95910.39
2019-03-25T15:08:31.417Z,95907.19
2019-03-25T15:11:04.550Z,95908.52
2019-03-25T15:13:42.551Z,95900.11
2019-03-25T15:16:13.946Z,95902.02
2019-03-25T15:18:45.743Z,95922.92
2019-03-25T15:21:17.615Z,95943.96
2019-03-25T15:23:52.924Z,95941.20
2019-03-25T15:26:24.948Z,95953.55
2019-03-25T15:28:58.015Z,95951.42
2019-03-25T15:31:38.595Z,95959.23
2019-03-25T15:34:23.287Z,95960.61
2019-03-25T15:36:58.489Z,95957.06
2019-03-25T15:39:33.181Z,95964.58
2019-03-25T15:42:05.380Z,95964.98
2019-03-25T15:44:36.770Z,95971.28
2019-03-25T15:47:08.181Z,95978.09
2019-03-25T15:49:46.378Z,95972.42
2019-03-25T15:52:20.613Z,95981.38
2019-03-25T15:54:55.014Z,95987.80
2019-03-25T15:57:39.723Z,95979.91
2019-03-25T16:03:48.019Z,95988.73
2019-03-25T16:06:31.118Z,95994.48
2019-03-25T16:09:13.918Z,95995.94
2019-03-25T16:11:48.711Z,95994.98
2019-03-25T16:14:27.855Z,95990.73
2019-03-25T16:16:59.474Z,96003.20
2019-03-25T16:19:35.042Z,96002.86
2019-03-25T16:22:07.159Z,96004.33
2019-03-25T16:24:38.622Z,96004.55
2019-03-25T16:27:10.240Z,96000.45
2019-03-25T16:29:44.062Z,96013.60
2019-03-25T16:32:18.808Z,96027.22
2019-03-25T16:34:50.616Z,96046.23
2019-03-25T16:37:24.570Z,96053.11
2019-03-25T16:40:15.001Z,96058.19
2019-03-25T16:42:49.701Z,96054.67
2019-03-25T16:45:25.302Z,96061.75
2019-03-25T16:47:57.221Z,96065.86
2019-03-25T16:50:28.755Z,96071.09
2019-03-25T16:53:08.776Z,96082.88
2019-03-25T16:55:44.638Z,96086.55
2019-03-25T16:58:20.122Z,96095.33
2019-03-25T17:00:54.365Z,96096.09
2019-03-25T17:03:29.122Z,96106.86
2019-03-25T17:06:00.684Z,96107.06
2019-03-25T17:08:33.904Z,96107.53
2019-03-25T17:11:10.472Z,96106.00
2019-03-25T17:13:47.723Z,96109.09
2019-03-25T17:16:22.140Z,96111.08
2019-03-25T17:18:54.443Z,96114.20
2019-03-25T17:21:27.174Z,96116.03
2019-03-25T17:24:00.386Z,96121.57
2019-03-25T17:26:42.076Z,96127.52
2019-03-25T17:29:13.745Z,96121.70
2019-03-25T17:31:59.542Z,96134.91
2019-03-25T17:34:32.876Z,96137.62
2019-03-25T17:37:04.676Z,96148.19
2019-03-25T17:39:41.289Z,96151.73
2019-03-25T17:42:17.758Z,96162.81
2019-03-25T17:44:56.566Z,96180.20
2019-03-25T17:47:32.266Z,96181.53
2019-03-25T17:50:04.226Z,96196.11
2019-03-25T17:52:42.935Z,96195.81
2019-03-25T17:55:14.604Z,96198.84
2019-03-25T17:57:46.293Z,96201.08
2019-03-25T18:00:24.377Z,96205.25
2019-03-25T18:02:55.835Z,96217.27
2019-03-25T18:05:30.244Z,96221.30
2019-03-25T18:08:04.736Z,96223.63
2019-03-25T18:10:43.494Z,96243.95
2019-03-25T18:13:22.272Z,96245.06
2019-03-25T18:15:57.074Z,96251.67
2019-03-25T18:18:30.359Z,96268.33
2019-03-25T18:21:03.510Z,96274.49
2019-03-25T18:23:48.355Z,96268.53
2019-03-25T18:26:23.484Z,96278.96
2019-03-25T18:29:08.027Z,96280.62
2019-03-25T18:31:43.595Z,96289.45
2019-03-25T18:34:14.940Z,96289.97
2019-03-25T18:37:02.640Z,96292.60
2019-03-25T18:39:40.062Z,96297.81
2019-03-25T18:42:15.250Z,96304.18
2019-03-25T18:44:47.104Z,96311.30
2019-03-25T18:47:32.941Z,96308.27
2019-03-25T18:50:10.467Z,96320.96
2019-03-25T18:52:45.093Z,96313.98
2019-03-25T18:55:24.707Z,96316.62
2019-03-25T18:57:56.590Z,96321.38
2019-03-25T19:00:36.715Z,96323.12
2019-03-25T19:03:08.606Z,96328.63
2019-03-25T19:05:46.131Z,96334.30
2019-03-25T19:08:21.388Z,96331.77
2019-03-25T19:10:53.688Z,96344.47
2019-03-25T19:13:50.977Z,96348.61
2019-03-25T19:16:34.788Z,96353.37
2019-03-25T19:19:06.585Z,96354.59
2019-03-25T19:21:53.471Z,96354.91
2019-03-25T19:24:28.540Z,96363.73
2019-03-25T19:27:04.779Z,96358.55
2019-03-25T19:29:44.357Z,96368.50
2019-03-25T19:32:20.080Z,96381.70
2019-03-25T19:35:04.138Z,96384.95
2019-03-25T19:37:39.116Z,96385.27
2019-03-25T19:40:11.081Z,96389.63
2019-03-25T19:42:46.186Z,96396.63
2019-03-25T19:45:22.600Z,96404.14
2019-03-25T19:48:08.137Z,96401.81
2019-03-25T19:50:51.879Z,96405.47
2019-03-25T19:53:26.312Z,96403.55
2019-03-25T19:55:58.531Z,96401.30
2019-03-25T19:58:31.935Z,96397.03
2019-03-25T20:01:06.941Z,96404.25
2019-03-25T20:03:43.475Z,96410.44
2019-03-25T20:06:26.121Z,96422.94
2019-03-25T20:08:51.941Z,96426.09
2019-03-25T20:11:32.337Z,96433.78
2019-03-25T20:14:08.411Z,96430.25
2019-03-25T20:16:55.607Z,96432.27
2019-03-25T20:19:34.083Z,96443.95
2019-03-25T20:22:16.758Z,96446.59
2019-03-25T20:24:46.435Z,96451.37
2019-03-25T20:27:20.371Z,96460.19
2019-03-25T20:29:53.991Z,96462.13
2019-03-25T20:32:32.231Z,96459.71
2019-03-25T20:35:08.625Z,96479.67
2019-03-25T20:37:50.369Z,96481.92
2019-03-25T20:40:25.021Z,96491.94
2019-03-25T20:42:56.468Z,96494.26
2019-03-25T20:45:29.366Z,96492.27
2019-03-25T20:48:00.846Z,96490.41
2019-03-25T20:50:32.717Z,96502.23
2019-03-25T20:53:10.082Z,96515.34
2019-03-25T20:55:41.381Z,96521.37
2019-03-25T20:58:15.852Z,96511.63
2019-03-25T21:01:05.712Z,96515.21
2019-03-25T21:03:37.187Z,96515.02
2019-03-25T21:06:09.179Z,96518.34
2019-03-25T21:08:44.687Z,96513.58
2019-03-25T21:11:26.531Z,96518.28
2019-03-25T21:13:58.429Z,96533.50
2019-03-25T21:16:31.780Z,96535.30
2019-03-25T21:19:21.092Z,96542.02
2019-03-25T21:21:55.465Z,96538.25
2019-03-25T21:24:30.198Z,96539.25
2019-03-25T21:27:03.515Z,96544.15
2019-03-25T21:29:34.943Z,96550.50
2019-03-25T21:32:06.924Z,96548.17
2019-03-25T21:34:41.078Z,96555.27
2019-03-25T21:37:12.588Z,96565.75
2019-03-25T21:39:46.839Z,96568.09
2019-03-25T21:42:18.617Z,96566.59
2019-03-25T21:44:50.142Z,96566.16
2019-03-25T21:47:26.382Z,96571.93
2019-03-25T21:49:59.330Z,96572.13
2019-03-25T21:52:32.576Z,96579.06
2019-03-25T21:55:10.476Z,96575.36
2019-03-25T21:57:45.088Z,96579.31
2019-03-25T22:00:22.742Z,96583.27
2019-03-25T22:02:55.898Z,96574.55
2019-03-25T22:05:28.669Z,96567.77
2019-03-25T22:08:03.512Z,96581.27
2019-03-25T22:10:35.498Z,96579.63
2019-03-25T22:13:10.478Z,96579.19
2019-03-25T22:15:47.640Z,96570.59
2019-03-25T22:18:22.058Z,96575.17
2019-03-25T22:20:53.947Z,96570.30
2019-03-25T22:23:25.324Z,96576.33
2019-03-25T22:25:57.954Z,96581.09
2019-03-25T22:28:32.370Z,96578.21
2019-03-25T22:31:06.751Z,96574.98
2019-03-25T22:33:38.136Z,96570.59
2019-03-25T22:36:21.691Z,96575.05
2019-03-25T22:38:53.403Z,96576.36
2019-03-25T22:41:24.997Z,96579.44
2019-03-25T22:43:56.709Z,96581.07
2019-03-25T22:46:28.054Z,96590.39
2019-03-25T22:49:01.646Z,96591.90
2019-03-25T22:51:34.545Z,96600.41
2019-03-25T22:54:10.950Z,96600.34
2019-03-25T22:56:44.049Z,96607.53
2019-03-25T22:59:18.294Z,96610.48
2019-03-25T23:01:49.922Z,96607.97
2019-03-25T23:04:21.277Z,96616.61
2019-03-25T23:06:54.796Z,96612.15
2019-03-25T23:09:31.878Z,96612.97
2019-03-25T23:12:04.870Z,96616.61
2019-03-25T23:14:36.271Z,96610.02
2019-03-25T23:17:07.853Z,96613.19
2019-03-25T23:19:39.489Z,96615.51
2019-03-25T23:22:11.314Z,96622.61
2019-03-25T23:24:42.776Z,96620.06
2019-03-25T23:27:14.314Z,96630.61
2019-03-25T23:29:45.637Z,96623.52
2019-03-25T23:32:28.057Z,96626.78
2019-03-25T23:34:59.462Z,96629.36
2019-03-25T23:37:33.101Z,96635.13
2019-03-25T23:40:04.571Z,96635.95
2019-03-25T23:42:45.256Z,96642.11
2019-03-25T23:45:16.820Z,96650.02
2019-03-25T23:47:51.192Z,96654.10
2019-03-25T23:50:22.592Z,96656.87
2019-03-25T23:52:54.846Z,96654.10
2019-03-25T23:55:26.297Z,96659.19
2019-03-25T23:57:58.900Z,96657.15
